AAL2623 MMSD-KPHX
Flight info
| Callsign | AAL2623 |
|---|---|
| Flight time | 1h 39m |
| Altitude | 34000 |
| Route | ANEGO1A ANEGO DCT LTO DCT HMO J92 TUS DCT HOTTT PINNG1 |
| Aircraft | A320/M-SDE3FGHIRWY/LB1 |
Departure
| Time | 2026-05-06 04:14 |
|---|---|
| Airport | Los Cabos International Airport (MMSD) |
Arrival
| Time | 2026-05-06 05:54 |
|---|---|
| Airport | Phoenix Sky Harbor International Airport (KPHX) |
| Time | Latitude | Longitude | Altitude | Speed | Heading |
|---|---|---|---|---|---|
| 2026-05-06 03:48 | 24.76747 | -107.47031 | 113 ft | 0 kts | 123° |
| 2026-05-06 03:55 | 23.16232 | -109.71684 | 360 ft | 0 kts | 85° |
| 2026-05-06 04:07 | 23.16231 | -109.71693 | 360 ft | 2 kts | 85° |
| 2026-05-06 04:07 | 23.16230 | -109.71706 | 361 ft | 2 kts | 85° |
| 2026-05-06 04:08 | 23.16223 | -109.71723 | 362 ft | 2 kts | 46° |
| 2026-05-06 04:08 | 23.16211 | -109.71732 | 362 ft | 2 kts | 18° |
| 2026-05-06 04:08 | 23.16198 | -109.71735 | 362 ft | 2 kts | 354° |
| 2026-05-06 04:08 | 23.16180 | -109.71732 | 362 ft | 2 kts | 356° |
| 2026-05-06 04:09 | 23.16174 | -109.71732 | 362 ft | 0 kts | 355° |
| 2026-05-06 04:10 | 23.16180 | -109.71732 | 362 ft | 2 kts | 355° |
| 2026-05-06 04:11 | 23.16218 | -109.71736 | 362 ft | 7 kts | 353° |
| 2026-05-06 04:11 | 23.16275 | -109.71775 | 364 ft | 6 kts | 268° |
| 2026-05-06 04:11 | 23.16315 | -109.71830 | 366 ft | 6 kts | 346° |
| 2026-05-06 04:11 | 23.16453 | -109.71846 | 366 ft | 13 kts | 354° |
| 2026-05-06 04:12 | 23.16554 | -109.71903 | 368 ft | 6 kts | 265° |
| 2026-05-06 04:12 | 23.16555 | -109.71896 | 368 ft | 0 kts | 264° |
| 2026-05-06 04:12 | 23.16555 | -109.71901 | 368 ft | 2 kts | 264° |
| 2026-05-06 04:13 | 23.16550 | -109.71959 | 371 ft | 10 kts | 265° |
| 2026-05-06 04:13 | 23.16537 | -109.72043 | 373 ft | 12 kts | 233° |
| 2026-05-06 04:13 | 23.16424 | -109.72046 | 372 ft | 30 kts | 174° |
| 2026-05-06 04:13 | 23.15962 | -109.71999 | 369 ft | 101 kts | 175° |
| 2026-05-06 04:14 | 23.15046 | -109.71902 | 354 ft | 160 kts | 174° |
| 2026-05-06 04:14 | 23.13873 | -109.71752 | 707 ft | 175 kts | 174° |
| 2026-05-06 04:14 | 23.12647 | -109.71619 | 1330 ft | 178 kts | 176° |
| 2026-05-06 04:14 | 23.11410 | -109.71509 | 1987 ft | 180 kts | 176° |
| 2026-05-06 04:15 | 23.10147 | -109.71396 | 2501 ft | 189 kts | 176° |
| 2026-05-06 04:15 | 23.08778 | -109.71271 | 2837 ft | 205 kts | 176° |
| 2026-05-06 04:15 | 23.07300 | -109.71130 | 3162 ft | 222 kts | 176° |
| 2026-05-06 04:15 | 23.05691 | -109.70976 | 3403 ft | 246 kts | 178° |
| 2026-05-06 04:16 | 23.03961 | -109.71173 | 3777 ft | 260 kts | 204° |
| 2026-05-06 04:16 | 23.02488 | -109.72367 | 4319 ft | 267 kts | 236° |
| 2026-05-06 04:16 | 23.01831 | -109.74198 | 5111 ft | 265 kts | 266° |
| 2026-05-06 04:16 | 23.02136 | -109.76156 | 5909 ft | 267 kts | 295° |
| 2026-05-06 04:17 | 23.03212 | -109.77802 | 6696 ft | 270 kts | 307° |
| 2026-05-06 04:17 | 23.04418 | -109.79373 | 7425 ft | 275 kts | 307° |
| 2026-05-06 04:17 | 23.05658 | -109.80989 | 8163 ft | 280 kts | 307° |
| 2026-05-06 04:17 | 23.06901 | -109.82625 | 8902 ft | 284 kts | 306° |
| 2026-05-06 04:18 | 23.08152 | -109.84284 | 9627 ft | 289 kts | 306° |
| 2026-05-06 04:18 | 23.09445 | -109.86008 | 10339 ft | 295 kts | 306° |
| 2026-05-06 04:18 | 23.10767 | -109.87777 | 10771 ft | 310 kts | 306° |
| 2026-05-06 04:18 | 23.12278 | -109.89576 | 11230 ft | 325 kts | 314° |
| 2026-05-06 04:19 | 23.14053 | -109.91140 | 11899 ft | 333 kts | 323° |
| 2026-05-06 04:19 | 23.16038 | -109.92522 | 12587 ft | 337 kts | 326° |
| 2026-05-06 04:19 | 23.18082 | -109.93864 | 13282 ft | 341 kts | 326° |
| 2026-05-06 04:19 | 23.20104 | -109.95183 | 13966 ft | 343 kts | 326° |
| 2026-05-06 04:20 | 23.22178 | -109.96543 | 14629 ft | 346 kts | 326° |
| 2026-05-06 04:20 | 23.24260 | -109.97916 | 15270 ft | 349 kts | 326° |
| 2026-05-06 04:20 | 23.26322 | -109.99279 | 15886 ft | 352 kts | 326° |
| 2026-05-06 04:20 | 23.28428 | -110.00676 | 16499 ft | 355 kts | 326° |
| 2026-05-06 04:21 | 23.30522 | -110.02067 | 17089 ft | 357 kts | 326° |
| 2026-05-06 04:21 | 23.32653 | -110.03483 | 17671 ft | 360 kts | 326° |
| 2026-05-06 04:21 | 23.34803 | -110.04913 | 18238 ft | 363 kts | 325° |
| 2026-05-06 04:21 | 23.36965 | -110.06351 | 18791 ft | 365 kts | 325° |
| 2026-05-06 04:22 | 23.39134 | -110.07796 | 19328 ft | 368 kts | 325° |
| 2026-05-06 04:22 | 23.41331 | -110.09259 | 19857 ft | 370 kts | 325° |
| 2026-05-06 04:22 | 23.43527 | -110.10722 | 20374 ft | 373 kts | 325° |
| 2026-05-06 04:23 | 23.47979 | -110.13689 | 21383 ft | 377 kts | 325° |
| 2026-05-06 04:23 | 23.50227 | -110.15189 | 21872 ft | 380 kts | 325° |
| 2026-05-06 04:23 | 23.52459 | -110.16763 | 22352 ft | 380 kts | 321° |
| 2026-05-06 04:23 | 23.54577 | -110.18546 | 22827 ft | 380 kts | 316° |
| 2026-05-06 04:24 | 23.56517 | -110.20493 | 23285 ft | 381 kts | 312° |
| 2026-05-06 04:24 | 23.58393 | -110.22514 | 23736 ft | 383 kts | 311° |
| 2026-05-06 04:24 | 23.60301 | -110.24593 | 24177 ft | 385 kts | 311° |
| 2026-05-06 04:24 | 23.62196 | -110.26657 | 24605 ft | 387 kts | 311° |
| 2026-05-06 04:25 | 23.64104 | -110.28731 | 25025 ft | 389 kts | 311° |
| 2026-05-06 04:25 | 23.66042 | -110.30833 | 25440 ft | 391 kts | 311° |
| 2026-05-06 04:25 | 23.67976 | -110.32929 | 25842 ft | 393 kts | 311° |
| 2026-05-06 04:25 | 23.69933 | -110.35049 | 26236 ft | 395 kts | 311° |
| 2026-05-06 04:26 | 23.71863 | -110.37141 | 26615 ft | 397 kts | 311° |
| 2026-05-06 04:26 | 23.73841 | -110.39285 | 26993 ft | 398 kts | 311° |
| 2026-05-06 04:26 | 23.75815 | -110.41427 | 27360 ft | 400 kts | 311° |
| 2026-05-06 04:26 | 23.77801 | -110.43582 | 27718 ft | 402 kts | 311° |
| 2026-05-06 04:27 | 23.79759 | -110.45706 | 28061 ft | 404 kts | 311° |
| 2026-05-06 04:27 | 23.81746 | -110.47865 | 28399 ft | 405 kts | 311° |
| 2026-05-06 04:27 | 23.83746 | -110.50038 | 28732 ft | 407 kts | 311° |
| 2026-05-06 04:27 | 23.85774 | -110.52241 | 29054 ft | 409 kts | 312° |
| 2026-05-06 04:28 | 23.87908 | -110.54303 | 29354 ft | 413 kts | 319° |
| 2026-05-06 04:28 | 23.90264 | -110.56084 | 29650 ft | 418 kts | 326° |
| 2026-05-06 04:28 | 23.92888 | -110.57581 | 29946 ft | 423 kts | 333° |
| 2026-05-06 04:28 | 23.95648 | -110.58740 | 30234 ft | 427 kts | 337° |
| 2026-05-06 04:29 | 23.98480 | -110.59792 | 30519 ft | 429 kts | 338° |
| 2026-05-06 04:29 | 24.01316 | -110.60824 | 30789 ft | 430 kts | 338° |
| 2026-05-06 04:29 | 24.04159 | -110.61861 | 31053 ft | 432 kts | 338° |
| 2026-05-06 04:29 | 24.07023 | -110.62910 | 31312 ft | 433 kts | 338° |
| 2026-05-06 04:30 | 24.09890 | -110.63966 | 31566 ft | 435 kts | 338° |
| 2026-05-06 04:30 | 24.12774 | -110.65033 | 31811 ft | 436 kts | 337° |
| 2026-05-06 04:30 | 24.15657 | -110.66101 | 32057 ft | 437 kts | 337° |
| 2026-05-06 04:30 | 24.18508 | -110.67159 | 32292 ft | 438 kts | 337° |
| 2026-05-06 04:31 | 24.21412 | -110.68238 | 32522 ft | 439 kts | 337° |
| 2026-05-06 04:31 | 24.24295 | -110.69310 | 32743 ft | 441 kts | 337° |
| 2026-05-06 04:31 | 24.27228 | -110.70401 | 32962 ft | 442 kts | 337° |
| 2026-05-06 04:31 | 24.30146 | -110.71487 | 33173 ft | 443 kts | 337° |
| 2026-05-06 04:32 | 24.33069 | -110.72577 | 33376 ft | 444 kts | 337° |
| 2026-05-06 04:32 | 24.36039 | -110.73683 | 33574 ft | 445 kts | 337° |
| 2026-05-06 04:32 | 24.38974 | -110.74778 | 33760 ft | 446 kts | 337° |
| 2026-05-06 04:32 | 24.41943 | -110.75886 | 33939 ft | 447 kts | 337° |
| 2026-05-06 04:33 | 24.44899 | -110.76989 | 33992 ft | 448 kts | 337° |
| 2026-05-06 04:33 | 24.50809 | -110.79196 | 33998 ft | 447 kts | 337° |
| 2026-05-06 04:34 | 24.56678 | -110.81390 | 33999 ft | 447 kts | 337° |
| 2026-05-06 04:34 | 24.62616 | -110.83613 | 34000 ft | 447 kts | 337° |
| 2026-05-06 04:35 | 24.68511 | -110.85822 | 34000 ft | 447 kts | 337° |
| 2026-05-06 04:35 | 24.74394 | -110.88028 | 34000 ft | 447 kts | 337° |
| 2026-05-06 04:36 | 24.80287 | -110.90240 | 34000 ft | 448 kts | 337° |
| 2026-05-06 04:36 | 24.86184 | -110.92454 | 34000 ft | 448 kts | 337° |
| 2026-05-06 04:37 | 24.92067 | -110.94668 | 34000 ft | 448 kts | 337° |
| 2026-05-06 04:37 | 24.97945 | -110.96880 | 34000 ft | 448 kts | 336° |
| 2026-05-06 04:38 | 25.03840 | -110.99095 | 34001 ft | 446 kts | 336° |
| 2026-05-06 04:38 | 25.09672 | -111.01292 | 34001 ft | 444 kts | 335° |
| 2026-05-06 04:39 | 25.15502 | -111.03496 | 34000 ft | 442 kts | 335° |
| 2026-05-06 04:39 | 25.21322 | -111.05702 | 33999 ft | 443 kts | 334° |
| 2026-05-06 04:40 | 25.27137 | -111.07906 | 33999 ft | 443 kts | 334° |
| 2026-05-06 04:40 | 25.32994 | -111.10126 | 33999 ft | 444 kts | 334° |
| 2026-05-06 04:41 | 25.38815 | -111.12334 | 33999 ft | 446 kts | 334° |
| 2026-05-06 04:41 | 25.44673 | -111.14558 | 34000 ft | 446 kts | 334° |
| 2026-05-06 04:42 | 25.50525 | -111.16782 | 34000 ft | 446 kts | 334° |
| 2026-05-06 04:42 | 25.56437 | -111.19031 | 34000 ft | 446 kts | 334° |
| 2026-05-06 04:43 | 25.62313 | -111.21268 | 34000 ft | 446 kts | 334° |
| 2026-05-06 04:43 | 25.68214 | -111.23517 | 34000 ft | 446 kts | 334° |
| 2026-05-06 04:44 | 25.74085 | -111.25758 | 34000 ft | 446 kts | 334° |
| 2026-05-06 04:44 | 25.79940 | -111.27994 | 33999 ft | 446 kts | 334° |
| 2026-05-06 04:45 | 25.85837 | -111.30250 | 34000 ft | 446 kts | 334° |
| 2026-05-06 04:45 | 25.91777 | -111.32412 | 33999 ft | 449 kts | 338° |
| 2026-05-06 04:46 | 25.97971 | -111.33814 | 34000 ft | 457 kts | 346° |
| 2026-05-06 04:46 | 26.04377 | -111.34251 | 34000 ft | 464 kts | 355° |
| 2026-05-06 04:47 | 26.10832 | -111.33809 | 33999 ft | 465 kts | 359° |
| 2026-05-06 04:47 | 26.17301 | -111.33177 | 34000 ft | 464 kts | 359° |
| 2026-05-06 04:48 | 26.23760 | -111.32558 | 34000 ft | 464 kts | 359° |
| 2026-05-06 04:48 | 26.30182 | -111.31952 | 34000 ft | 464 kts | 359° |
| 2026-05-06 04:49 | 26.36628 | -111.31348 | 34000 ft | 464 kts | 359° |
| 2026-05-06 04:49 | 26.43095 | -111.30743 | 34000 ft | 464 kts | 359° |
| 2026-05-06 04:50 | 26.49529 | -111.30140 | 34000 ft | 464 kts | 359° |
| 2026-05-06 04:50 | 26.55984 | -111.29534 | 34000 ft | 464 kts | 359° |
| 2026-05-06 04:51 | 26.62374 | -111.28934 | 34000 ft | 464 kts | 359° |
| 2026-05-06 04:51 | 26.68847 | -111.28326 | 34000 ft | 464 kts | 359° |
| 2026-05-06 04:52 | 26.75252 | -111.27724 | 34000 ft | 464 kts | 359° |
| 2026-05-06 04:52 | 26.81669 | -111.27119 | 33999 ft | 464 kts | 359° |
| 2026-05-06 04:53 | 26.88104 | -111.26512 | 34000 ft | 464 kts | 359° |
| 2026-05-06 04:53 | 26.94528 | -111.25901 | 33999 ft | 466 kts | 358° |
| 2026-05-06 04:54 | 27.00979 | -111.25288 | 33998 ft | 468 kts | 357° |
| 2026-05-06 04:54 | 27.07512 | -111.24670 | 33999 ft | 470 kts | 357° |
| 2026-05-06 04:55 | 27.14058 | -111.24056 | 34000 ft | 471 kts | 357° |
| 2026-05-06 04:55 | 27.20548 | -111.23443 | 33997 ft | 471 kts | 357° |
| 2026-05-06 04:56 | 27.27073 | -111.22822 | 33998 ft | 470 kts | 357° |
| 2026-05-06 04:56 | 27.33616 | -111.22199 | 33999 ft | 471 kts | 357° |
| 2026-05-06 04:57 | 27.40126 | -111.21581 | 34000 ft | 471 kts | 357° |
| 2026-05-06 04:57 | 27.46640 | -111.20959 | 33998 ft | 471 kts | 357° |
| 2026-05-06 04:58 | 27.53149 | -111.20338 | 33999 ft | 470 kts | 357° |
| 2026-05-06 04:58 | 27.59684 | -111.19715 | 34000 ft | 471 kts | 357° |
| 2026-05-06 04:59 | 27.66194 | -111.19091 | 34000 ft | 470 kts | 357° |
| 2026-05-06 04:59 | 27.72690 | -111.18469 | 34003 ft | 471 kts | 357° |
| 2026-05-06 05:00 | 27.79194 | -111.17845 | 34006 ft | 471 kts | 357° |
| 2026-05-06 05:00 | 27.85746 | -111.17214 | 34022 ft | 469 kts | 357° |
| 2026-05-06 05:01 | 27.92269 | -111.16587 | 34035 ft | 469 kts | 357° |
| 2026-05-06 05:01 | 27.98638 | -111.15972 | 34039 ft | 470 kts | 357° |
| 2026-05-06 05:02 | 28.05175 | -111.15345 | 34044 ft | 470 kts | 357° |
| 2026-05-06 05:02 | 28.11694 | -111.14717 | 34043 ft | 470 kts | 357° |
| 2026-05-06 05:03 | 28.18211 | -111.14088 | 34045 ft | 469 kts | 357° |
| 2026-05-06 05:03 | 28.24742 | -111.13455 | 34045 ft | 469 kts | 357° |
| 2026-05-06 05:04 | 28.31265 | -111.12825 | 34045 ft | 470 kts | 357° |
| 2026-05-06 05:04 | 28.37780 | -111.12191 | 34045 ft | 469 kts | 357° |
| 2026-05-06 05:05 | 28.44313 | -111.11557 | 34046 ft | 469 kts | 357° |
| 2026-05-06 05:05 | 28.50825 | -111.10926 | 34044 ft | 469 kts | 357° |
| 2026-05-06 05:06 | 28.57365 | -111.10287 | 34045 ft | 469 kts | 357° |
| 2026-05-06 05:06 | 28.63894 | -111.09652 | 34044 ft | 468 kts | 357° |
| 2026-05-06 05:07 | 28.70403 | -111.09017 | 34045 ft | 469 kts | 357° |
| 2026-05-06 05:07 | 28.76924 | -111.08382 | 34046 ft | 468 kts | 357° |
| 2026-05-06 05:08 | 28.83399 | -111.07749 | 34046 ft | 467 kts | 357° |
| 2026-05-06 05:08 | 28.89908 | -111.07111 | 34045 ft | 467 kts | 357° |
| 2026-05-06 05:09 | 28.96408 | -111.06474 | 34045 ft | 468 kts | 357° |
| 2026-05-06 05:09 | 29.02927 | -111.05832 | 34044 ft | 468 kts | 357° |
| 2026-05-06 05:10 | 29.09421 | -111.05208 | 34043 ft | 469 kts | 355° |
| 2026-05-06 05:10 | 29.15956 | -111.04871 | 34045 ft | 469 kts | 353° |
| 2026-05-06 05:11 | 29.22522 | -111.04596 | 34052 ft | 468 kts | 353° |
| 2026-05-06 05:11 | 29.29078 | -111.04312 | 34060 ft | 468 kts | 353° |
| 2026-05-06 05:12 | 29.35613 | -111.04022 | 34063 ft | 468 kts | 353° |
| 2026-05-06 05:12 | 29.42104 | -111.03731 | 34065 ft | 468 kts | 353° |
| 2026-05-06 05:13 | 29.48673 | -111.03437 | 34065 ft | 468 kts | 353° |
| 2026-05-06 05:13 | 29.55204 | -111.03143 | 34065 ft | 468 kts | 353° |
| 2026-05-06 05:14 | 29.61720 | -111.02850 | 34065 ft | 467 kts | 353° |
| 2026-05-06 05:14 | 29.68238 | -111.02559 | 34064 ft | 467 kts | 353° |
| 2026-05-06 05:15 | 29.74771 | -111.02265 | 34065 ft | 467 kts | 353° |
| 2026-05-06 05:15 | 29.81282 | -111.01973 | 34065 ft | 467 kts | 353° |
| 2026-05-06 05:16 | 29.87796 | -111.01679 | 34065 ft | 466 kts | 353° |
| 2026-05-06 05:16 | 29.94296 | -111.01386 | 34065 ft | 466 kts | 353° |
| 2026-05-06 05:17 | 30.00824 | -111.01091 | 34065 ft | 466 kts | 353° |
| 2026-05-06 05:17 | 30.07300 | -111.00798 | 34065 ft | 465 kts | 353° |
| 2026-05-06 05:18 | 30.13802 | -111.00504 | 34064 ft | 466 kts | 353° |
| 2026-05-06 05:18 | 30.20349 | -111.00210 | 34065 ft | 466 kts | 353° |
| 2026-05-06 05:19 | 30.26725 | -110.99922 | 34065 ft | 465 kts | 353° |
| 2026-05-06 05:19 | 30.33251 | -110.99628 | 34065 ft | 465 kts | 353° |
| 2026-05-06 05:20 | 30.39731 | -110.99334 | 34065 ft | 464 kts | 353° |
| 2026-05-06 05:20 | 30.46208 | -110.99040 | 34065 ft | 464 kts | 353° |
| 2026-05-06 05:21 | 30.52671 | -110.98746 | 34065 ft | 464 kts | 353° |
| 2026-05-06 05:21 | 30.59146 | -110.98429 | 34065 ft | 464 kts | 353° |
| 2026-05-06 05:22 | 30.65566 | -110.98113 | 34065 ft | 464 kts | 353° |
| 2026-05-06 05:22 | 30.72160 | -110.97789 | 34065 ft | 464 kts | 353° |
| 2026-05-06 05:23 | 30.78636 | -110.97472 | 34065 ft | 464 kts | 353° |
| 2026-05-06 05:23 | 30.88311 | -110.97020 | 34065 ft | 463 kts | 353° |
| 2026-05-06 05:24 | 30.94741 | -110.96731 | 34064 ft | 464 kts | 353° |
| 2026-05-06 05:24 | 31.01225 | -110.96435 | 34063 ft | 466 kts | 353° |
| 2026-05-06 05:25 | 31.07725 | -110.96139 | 34064 ft | 467 kts | 353° |
| 2026-05-06 05:25 | 31.14221 | -110.95841 | 34063 ft | 467 kts | 353° |
| 2026-05-06 05:26 | 31.20750 | -110.95541 | 34065 ft | 467 kts | 353° |
| 2026-05-06 05:26 | 31.27232 | -110.95244 | 34065 ft | 467 kts | 353° |
| 2026-05-06 05:27 | 31.33687 | -110.94947 | 34066 ft | 466 kts | 353° |
| 2026-05-06 05:27 | 31.40164 | -110.94652 | 34065 ft | 467 kts | 353° |
| 2026-05-06 05:28 | 31.46657 | -110.94355 | 34067 ft | 467 kts | 353° |
| 2026-05-06 05:28 | 31.53111 | -110.94057 | 34065 ft | 465 kts | 353° |
| 2026-05-06 05:29 | 31.59607 | -110.93761 | 34065 ft | 466 kts | 353° |
| 2026-05-06 05:29 | 31.66048 | -110.93466 | 34065 ft | 465 kts | 353° |
| 2026-05-06 05:30 | 31.72427 | -110.93173 | 34065 ft | 465 kts | 353° |
| 2026-05-06 05:30 | 31.78879 | -110.92874 | 34057 ft | 464 kts | 353° |
| 2026-05-06 05:31 | 31.85319 | -110.92579 | 34046 ft | 464 kts | 353° |
| 2026-05-06 05:31 | 31.91749 | -110.92282 | 33999 ft | 465 kts | 353° |
| 2026-05-06 05:32 | 31.94999 | -110.92135 | 33405 ft | 471 kts | 353° |
| 2026-05-06 05:32 | 31.98294 | -110.91991 | 32511 ft | 477 kts | 354° |
| 2026-05-06 05:32 | 32.01643 | -110.91840 | 31661 ft | 480 kts | 354° |
| 2026-05-06 05:32 | 32.04967 | -110.91695 | 30945 ft | 478 kts | 353° |
| 2026-05-06 05:33 | 32.08305 | -110.91763 | 30280 ft | 472 kts | 349° |
| 2026-05-06 05:33 | 32.11424 | -110.92118 | 29667 ft | 465 kts | 345° |
| 2026-05-06 05:33 | 32.14616 | -110.92787 | 29064 ft | 457 kts | 340° |
| 2026-05-06 05:33 | 32.17746 | -110.93613 | 28493 ft | 452 kts | 340° |
| 2026-05-06 05:34 | 32.20787 | -110.94456 | 27914 ft | 448 kts | 340° |
| 2026-05-06 05:34 | 32.23841 | -110.95306 | 27326 ft | 445 kts | 340° |
| 2026-05-06 05:34 | 32.26848 | -110.96136 | 26744 ft | 442 kts | 340° |
| 2026-05-06 05:34 | 32.29836 | -110.96954 | 26185 ft | 439 kts | 341° |
| 2026-05-06 05:35 | 32.32832 | -110.97770 | 25626 ft | 435 kts | 341° |
| 2026-05-06 05:35 | 32.35828 | -110.98584 | 25156 ft | 430 kts | 341° |
| 2026-05-06 05:35 | 32.38708 | -110.99361 | 25023 ft | 417 kts | 341° |
| 2026-05-06 05:35 | 32.41533 | -111.00127 | 25023 ft | 416 kts | 341° |
| 2026-05-06 05:36 | 32.44393 | -111.00908 | 25022 ft | 417 kts | 341° |
| 2026-05-06 05:36 | 32.47222 | -111.01680 | 25022 ft | 417 kts | 341° |
| 2026-05-06 05:36 | 32.50060 | -111.02466 | 25020 ft | 416 kts | 339° |
| 2026-05-06 05:36 | 32.52807 | -111.03560 | 25018 ft | 411 kts | 330° |
| 2026-05-06 05:37 | 32.55325 | -111.05071 | 25019 ft | 405 kts | 322° |
| 2026-05-06 05:37 | 32.57715 | -111.06826 | 24912 ft | 401 kts | 320° |
| 2026-05-06 05:37 | 32.60054 | -111.08618 | 24220 ft | 406 kts | 320° |
| 2026-05-06 05:37 | 32.62454 | -111.10468 | 23284 ft | 411 kts | 321° |
| 2026-05-06 05:38 | 32.64480 | -111.12013 | 22420 ft | 410 kts | 322° |
| 2026-05-06 05:38 | 32.66874 | -111.13822 | 21356 ft | 410 kts | 323° |
| 2026-05-06 05:38 | 32.69266 | -111.15621 | 20413 ft | 405 kts | 323° |
| 2026-05-06 05:38 | 32.71634 | -111.17398 | 19521 ft | 400 kts | 324° |
| 2026-05-06 05:39 | 32.73895 | -111.19289 | 18634 ft | 391 kts | 315° |
| 2026-05-06 05:39 | 32.75774 | -111.21601 | 17787 ft | 379 kts | 304° |
| 2026-05-06 05:39 | 32.77291 | -111.24132 | 16940 ft | 372 kts | 300° |
| 2026-05-06 05:39 | 32.78700 | -111.26669 | 16168 ft | 364 kts | 300° |
| 2026-05-06 05:40 | 32.80061 | -111.29134 | 15728 ft | 351 kts | 300° |
| 2026-05-06 05:40 | 32.81403 | -111.31547 | 15319 ft | 341 kts | 301° |
| 2026-05-06 05:40 | 32.82705 | -111.33876 | 14923 ft | 335 kts | 301° |
| 2026-05-06 05:40 | 32.84005 | -111.36194 | 14530 ft | 335 kts | 301° |
| 2026-05-06 05:41 | 32.85310 | -111.38513 | 14147 ft | 333 kts | 301° |
| 2026-05-06 05:41 | 32.86610 | -111.40824 | 13768 ft | 332 kts | 302° |
| 2026-05-06 05:41 | 32.87894 | -111.43105 | 13412 ft | 329 kts | 302° |
| 2026-05-06 05:41 | 32.89176 | -111.45381 | 13265 ft | 323 kts | 302° |
| 2026-05-06 05:42 | 32.90444 | -111.47546 | 13150 ft | 319 kts | 309° |
| 2026-05-06 05:42 | 32.92111 | -111.49278 | 13048 ft | 317 kts | 328° |
| 2026-05-06 05:42 | 32.94105 | -111.50429 | 12656 ft | 319 kts | 337° |
| 2026-05-06 05:42 | 32.96169 | -111.51397 | 12282 ft | 316 kts | 339° |
| 2026-05-06 05:43 | 32.98187 | -111.52322 | 11947 ft | 313 kts | 339° |
| 2026-05-06 05:43 | 33.00236 | -111.53281 | 11622 ft | 308 kts | 338° |
| 2026-05-06 05:43 | 33.02204 | -111.54224 | 11308 ft | 304 kts | 338° |
| 2026-05-06 05:43 | 33.04159 | -111.55170 | 11031 ft | 299 kts | 338° |
| 2026-05-06 05:44 | 33.06065 | -111.56099 | 10784 ft | 292 kts | 338° |
| 2026-05-06 05:44 | 33.07873 | -111.56983 | 10555 ft | 286 kts | 338° |
| 2026-05-06 05:44 | 33.09698 | -111.57883 | 10269 ft | 282 kts | 337° |
| 2026-05-06 05:44 | 33.11490 | -111.58769 | 9950 ft | 280 kts | 337° |
| 2026-05-06 05:45 | 33.13309 | -111.59669 | 9583 ft | 279 kts | 337° |
| 2026-05-06 05:45 | 33.15094 | -111.60550 | 9197 ft | 279 kts | 337° |
| 2026-05-06 05:45 | 33.16872 | -111.61430 | 8850 ft | 277 kts | 337° |
| 2026-05-06 05:45 | 33.18637 | -111.62303 | 8519 ft | 275 kts | 337° |
| 2026-05-06 05:46 | 33.20427 | -111.63188 | 8251 ft | 270 kts | 337° |
| 2026-05-06 05:46 | 33.22131 | -111.64031 | 8179 ft | 258 kts | 337° |
| 2026-05-06 05:46 | 33.23766 | -111.64912 | 8020 ft | 250 kts | 334° |
| 2026-05-06 05:46 | 33.25254 | -111.65777 | 7718 ft | 249 kts | 333° |
| 2026-05-06 05:47 | 33.26816 | -111.66697 | 7414 ft | 248 kts | 333° |
| 2026-05-06 05:47 | 33.28358 | -111.67605 | 7119 ft | 247 kts | 333° |
| 2026-05-06 05:47 | 33.29890 | -111.68504 | 6830 ft | 245 kts | 333° |
| 2026-05-06 05:47 | 33.31430 | -111.69405 | 6540 ft | 243 kts | 333° |
| 2026-05-06 05:48 | 33.32975 | -111.70309 | 6248 ft | 242 kts | 333° |
| 2026-05-06 05:48 | 33.34479 | -111.71188 | 5964 ft | 240 kts | 333° |
| 2026-05-06 05:48 | 33.35966 | -111.72057 | 5679 ft | 239 kts | 333° |
| 2026-05-06 05:48 | 33.37467 | -111.72935 | 5395 ft | 237 kts | 333° |
| 2026-05-06 05:49 | 33.38901 | -111.73774 | 5127 ft | 236 kts | 333° |
| 2026-05-06 05:49 | 33.40281 | -111.74771 | 5023 ft | 230 kts | 316° |
| 2026-05-06 05:49 | 33.41320 | -111.76244 | 4797 ft | 230 kts | 303° |
| 2026-05-06 05:49 | 33.42212 | -111.77856 | 4530 ft | 228 kts | 302° |
| 2026-05-06 05:50 | 33.43067 | -111.79444 | 4284 ft | 226 kts | 302° |
| 2026-05-06 05:50 | 33.43830 | -111.81111 | 4043 ft | 225 kts | 286° |
| 2026-05-06 05:50 | 33.44088 | -111.82951 | 3772 ft | 225 kts | 272° |
| 2026-05-06 05:50 | 33.44114 | -111.84843 | 3470 ft | 225 kts | 269° |
| 2026-05-06 05:51 | 33.44087 | -111.86718 | 3178 ft | 223 kts | 269° |
| 2026-05-06 05:51 | 33.44072 | -111.88536 | 2983 ft | 210 kts | 269° |
| 2026-05-06 05:51 | 33.44072 | -111.90227 | 2651 ft | 199 kts | 270° |
| 2026-05-06 05:51 | 33.44075 | -111.91830 | 2386 ft | 186 kts | 270° |
| 2026-05-06 05:52 | 33.44077 | -111.93345 | 2120 ft | 174 kts | 270° |
| 2026-05-06 05:52 | 33.44078 | -111.94732 | 1888 ft | 159 kts | 270° |
| 2026-05-06 05:52 | 33.44075 | -111.96014 | 1670 ft | 144 kts | 269° |
| 2026-05-06 05:52 | 33.44073 | -111.97189 | 1466 ft | 136 kts | 269° |
| 2026-05-06 05:53 | 33.44077 | -111.98323 | 1318 ft | 136 kts | 270° |
| 2026-05-06 05:53 | 33.44082 | -111.99474 | 1163 ft | 135 kts | 269° |
| 2026-05-06 05:53 | 33.44077 | -112.00473 | 1131 ft | 107 kts | 270° |
| 2026-05-06 05:53 | 33.44082 | -112.01165 | 1127 ft | 56 kts | 269° |
| 2026-05-06 05:54 | 33.44081 | -112.01504 | 1124 ft | 32 kts | 270° |
| 2026-05-06 05:54 | 33.44032 | -112.01692 | 1124 ft | 18 kts | 197° |
| 2026-05-06 05:54 | 33.43975 | -112.01613 | 1124 ft | 14 kts | 89° |
| 2026-05-06 05:54 | 33.43975 | -112.01496 | 1124 ft | 14 kts | 90° |
| 2026-05-06 05:55 | 33.43975 | -112.01382 | 1126 ft | 12 kts | 90° |
| 2026-05-06 05:55 | 33.43975 | -112.01289 | 1127 ft | 12 kts | 90° |
| 2026-05-06 05:55 | 33.43975 | -112.01183 | 1127 ft | 13 kts | 90° |
| 2026-05-06 05:55 | 33.43975 | -112.01062 | 1127 ft | 15 kts | 90° |
| 2026-05-06 05:56 | 33.43974 | -112.00919 | 1128 ft | 18 kts | 90° |
| 2026-05-06 05:56 | 33.43974 | -112.00757 | 1131 ft | 19 kts | 90° |
| 2026-05-06 05:56 | 33.43974 | -112.00596 | 1131 ft | 19 kts | 90° |
| 2026-05-06 05:56 | 33.43974 | -112.00433 | 1131 ft | 19 kts | 90° |
| 2026-05-06 05:57 | 33.43973 | -112.00258 | 1131 ft | 22 kts | 90° |
| 2026-05-06 05:57 | 33.43973 | -112.00075 | 1132 ft | 20 kts | 90° |
| 2026-05-06 05:57 | 33.43973 | -111.99909 | 1134 ft | 19 kts | 90° |
| 2026-05-06 05:57 | 33.43910 | -111.99813 | 1134 ft | 15 kts | 123° |
| 2026-05-06 05:58 | 33.43905 | -111.99721 | 1134 ft | 10 kts | 90° |
| 2026-05-06 05:58 | 33.43905 | -111.99661 | 1135 ft | 6 kts | 90° |
| 2026-05-06 05:58 | 33.43905 | -111.99607 | 1135 ft | 7 kts | 90° |
| 2026-05-06 05:58 | 33.43905 | -111.99542 | 1135 ft | 8 kts | 90° |
| 2026-05-06 05:59 | 33.43892 | -111.99465 | 1135 ft | 10 kts | 144° |
| 2026-05-06 05:59 | 33.43836 | -111.99455 | 1134 ft | 3 kts | 181° |
| 2026-05-06 05:59 | 33.43828 | -111.99456 | 1134 ft | 0 kts | 181° |